| time (UTC) | temp F | wind direction | speed MPH | gust MPH | rain 1hr in | rain 24hr in | rain mn in | humidity % | barometer mb |
| 20260504002133 | 55 | 165 | 0.0 | 0.0 | 0.00 | 0.01 | 0.01 | 55 | 1015.4 |
| 20260504001631 | 55 | 164 | 0.0 | 0.0 | 0.00 | 0.01 | 0.01 | 55 | 1015.3 |
| 20260504001127 | 55 | 163 | 0.0 | 0.0 | 0.00 | 0.01 | 0.01 | 55 | 1015.3 |
| 20260504000624 | 55 | 164 | 0.0 | 0.0 | 0.00 | 0.01 | 0.01 | 52 | 1015.3 |
| 20260504000121 | 56 | 158 | 0.0 | 0.0 | 0.00 | 0.01 | 0.01 | 54 | 1015.6 |
| 20260503235620 | 56 | 164 | 0.0 | 0.0 | 0.00 | 0.01 | 0.01 | 54 | 1015.6 |
| 20260503235116 | 56 | 163 | 0.0 | 0.0 | 0.00 | 0.01 | 0.01 | 53 | 1015.9 |
| 20260503234614 | 57 | 182 | 2.0 | 2.0 | 0.00 | 0.01 | 0.01 | 50 | 1015.7 |
| 20260503234112 | 57 | 168 | 0.0 | 0.0 | 0.00 | 0.01 | 0.01 | 50 | 1015.9 |
| 20260503233609 | 57 | 165 | 0.0 | 0.0 | 0.00 | 0.01 | 0.01 | 50 | 1015.9 |
| 20260503233059 | 57 | 167 | 0.0 | 0.0 | 0.00 | 0.01 | 0.01 | 50 | 1015.9 |
| 20260503232556 | 58 | 166 | 0.0 | 0.0 | 0.00 | 0.01 | 0.01 | 50 | 1015.8 |
| 20260503232053 | 58 | 207 | 3.0 | 3.0 | 0.00 | 0.01 | 0.01 | 47 | 1016.0 |
| 20260503231551 | 59 | 178 | 0.0 | 0.0 | 0.00 | 0.01 | 0.01 | 48 | 1015.9 |
| 20260503231048 | 60 | 163 | 2.0 | 3.0 | 0.00 | 0.01 | 0.01 | 43 | 1015.8 |
| 20260503230544 | 61 | 183 | 0.0 | 2.0 | 0.00 | 0.01 | 0.01 | 42 | 1015.9 |
| 20260503230042 | 60 | 169 | 0.0 | 0.0 | 0.00 | 0.01 | 0.01 | 42 | 1015.8 |
| 20260503225538 | 60 | 198 | 1.0 | 2.0 | 0.00 | 0.01 | 0.01 | 41 | 1016.1 |
| 20260503225033 | 61 | 163 | 0.0 | 0.0 | 0.00 | 0.01 | 0.01 | 40 | 1016.2 |
| 20260503224531 | 60 | 182 | 0.0 | 0.0 | 0.00 | 0.01 | 0.01 | 44 | 1016.4 |
| 20260503224029 | 60 | 208 | 1.0 | 2.0 | 0.00 | 0.01 | 0.01 | 43 | 1016.2 |
| 20260503223527 | 61 | 192 | 0.0 | 0.0 | 0.00 | 0.01 | 0.01 | 40 | 1016.5 |
| 20260503223022 | 61 | 192 | 1.0 | 2.0 | 0.00 | 0.01 | 0.01 | 37 | 1016.4 |
| 20260503222520 | 62 | 188 | 0.0 | 0.0 | 0.00 | 0.01 | 0.01 | 40 | 1016.4 |
| 20260503222018 | 63 | 197 | 2.0 | 2.0 | 0.00 | 0.01 | 0.01 | 42 | 1016.6 |
| 20260503221516 | 62 | 186 | 0.0 | 2.0 | 0.00 | 0.01 | 0.01 | 41 | 1016.6 |
| 20260503221013 | 62 | 167 | 0.0 | 0.0 | 0.00 | 0.01 | 0.01 | 43 | 1016.6 |
| 20260503220509 | 62 | 206 | 1.0 | 3.0 | 0.00 | 0.01 | 0.01 | 43 | 1016.7 |
| 20260503220006 | 63 | 165 | 0.0 | 2.0 | 0.00 | 0.01 | 0.01 | 44 | 1016.7 |
| 20260503215503 | 62 | 185 | 2.0 | 2.0 | 0.00 | 0.01 | 0.01 | 46 | 1016.7 |
| 20260503215000 | 62 | 31 | 4.0 | 5.0 | 0.00 | 0.01 | 0.01 | 43 | 1016.7 |
| 20260503214459 | 62 | 220 | 3.0 | 5.0 | 0.00 | 0.01 | 0.01 | 43 | 1016.7 |
| 20260503213955 | 62 | 156 | 0.0 | 0.0 | 0.00 | 0.01 | 0.01 | 46 | 1016.9 |
| 20260503213454 | 62 | 192 | 1.0 | 2.0 | 0.00 | 0.01 | 0.01 | 43 | 1016.9 |
| 20260503212949 | 62 | 97 | 1.0 | 2.0 | 0.00 | 0.01 | 0.01 | 42 | 1016.8 |
| 20260503212447 | 62 | 185 | 0.0 | 0.0 | 0.00 | 0.01 | 0.01 | 46 | 1017.0 |
| 20260503211944 | 61 | 169 | 1.0 | 2.0 | 0.00 | 0.01 | 0.01 | 46 | 1017.3 |
| 20260503211441 | 61 | 186 | 0.0 | 0.0 | 0.00 | 0.01 | 0.01 | 48 | 1017.2 |
| 20260503210937 | 61 | 126 | 1.0 | 2.0 | 0.00 | 0.01 | 0.01 | 45 | 1017.1 |
| 20260503210433 | 62 | 211 | 3.0 | 5.0 | 0.00 | 0.01 | 0.01 | 48 | 1017.5 |
| 20260503205928 | 61 | 195 | 0.0 | 0.0 | 0.00 | 0.01 | 0.01 | 48 | 1017.4 |
| 20260503205426 | 60 | 170 | 2.0 | 3.0 | 0.00 | 0.01 | 0.01 | 46 | 1017.3 |
| 20260503204922 | 60 | 198 | 0.0 | 0.0 | 0.00 | 0.01 | 0.01 | 44 | 1017.5 |
| 20260503204419 | 61 | 183 | 2.0 | 2.0 | 0.00 | 0.01 | 0.01 | 46 | 1017.4 |
| 20260503203916 | 62 | 143 | 3.0 | 5.0 | 0.00 | 0.01 | 0.01 | 45 | 1017.4 |
| 20260503203414 | 61 | 130 | 1.0 | 2.0 | 0.00 | 0.01 | 0.01 | 46 | 1017.6 |
| 20260503202910 | 61 | 186 | 2.0 | 3.0 | 0.00 | 0.01 | 0.01 | 47 | 1017.7 |
| 20260503202409 | 60 | 189 | 0.0 | 0.0 | 0.00 | 0.01 | 0.01 | 45 | 1017.9 |
| 20260503201907 | 62 | 180 | 0.0 | 0.0 | 0.00 | 0.01 | 0.01 | 44 | 1018.0 |
| 20260503201403 | 62 | 201 | 0.0 | 0.0 | 0.00 | 0.01 | 0.01 | 46 | 1018.0 |
| 20260503200901 | 62 | 39 | 2.0 | 3.0 | 0.00 | 0.01 | 0.01 | 46 | 1018.0 |
| 20260503200356 | 60 | 178 | 0.0 | 0.0 | 0.00 | 0.01 | 0.01 | 48 | 1018.2 |
| 20260503195854 | 60 | 189 | 0.0 | 0.0 | 0.00 | 0.01 | 0.01 | 50 | 1018.4 |
| 20260503195350 | 60 | 215 | 3.0 | 5.0 | 0.00 | 0.01 | 0.01 | 52 | 1018.3 |
| 20260503194848 | 60 | 193 | 0.0 | 2.0 | 0.00 | 0.01 | 0.01 | 47 | 1018.4 |
| 20260503194344 | 59 | 78 | 2.0 | 3.0 | 0.00 | 0.01 | 0.01 | 50 | 1018.4 |
| 20260503193840 | 59 | 263 | 7.0 | 9.0 | 0.00 | 0.01 | 0.01 | 47 | 1018.6 |
| 20260503193336 | 60 | 186 | 4.0 | 5.0 | 0.00 | 0.01 | 0.01 | 45 | 1018.5 |
| 20260503192832 | 60 | 167 | 0.0 | 0.0 | 0.00 | 0.01 | 0.01 | 50 | 1018.8 |
| 20260503192328 | 60 | 177 | 0.0 | 0.0 | 0.00 | 0.01 | 0.01 | 52 | 1018.8 |
| 20260503191824 | 59 | 171 | 0.0 | 0.0 | 0.00 | 0.01 | 0.01 | 54 | 1018.9 |
| 20260503191321 | 58 | 86 | 6.0 | 7.0 | 0.00 | 0.01 | 0.01 | 54 | 1018.6 |
| 20260503190817 | 58 | 190 | 0.0 | 0.0 | 0.00 | 0.01 | 0.01 | 54 | 1018.9 |
| 20260503190315 | 58 | 239 | 2.0 | 3.0 | 0.00 | 0.01 | 0.01 | 56 | 1019.1 |
| 20260503185812 | 57 | 193 | 1.0 | 2.0 | 0.00 | 0.01 | 0.01 | 54 | 1019.2 |
| 20260503185307 | 58 | 194 | 0.0 | 0.0 | 0.00 | 0.01 | 0.01 | 54 | 1019.1 |
| 20260503184802 | 58 | 192 | 2.0 | 3.0 | 0.00 | 0.01 | 0.01 | 57 | 1019.3 |
| 20260503184259 | 58 | 165 | 1.0 | 2.0 | 0.00 | 0.01 | 0.01 | 55 | 1019.3 |
| 20260503183754 | 58 | 274 | 5.0 | 5.0 | 0.00 | 0.01 | 0.01 | 57 | 1019.5 |
| 20260503183252 | 57 | 172 | 0.0 | 0.0 | 0.00 | 0.01 | 0.01 | 57 | 1019.4 |
| 20260503182749 | 56 | 187 | 1.0 | 2.0 | 0.00 | 0.01 | 0.01 | 57 | 1019.5 |
| 20260503182248 | 57 | 221 | 2.0 | 2.0 | 0.00 | 0.01 | 0.01 | 57 | 1019.5 |
| 20260503181745 | 56 | 169 | 0.0 | 2.0 | 0.00 | 0.01 | 0.01 | 55 | 1019.7 |
| 20260503181242 | 55 | 160 | 0.0 | 2.0 | 0.00 | 0.01 | 0.01 | 54 | 1019.7 |
| 20260503180738 | 55 | 344 | 2.0 | 5.0 | 0.00 | 0.01 | 0.01 | 56 | 1020.0 |
| 20260503180237 | 56 | 180 | 2.0 | 3.0 | 0.00 | 0.01 | 0.01 | 56 | 1019.8 |
| 20260503175733 | 57 | 178 | 0.0 | 0.0 | 0.00 | 0.01 | 0.01 | 57 | 1019.7 |
| 20260503175231 | 56 | 161 | 0.0 | 0.0 | 0.00 | 0.01 | 0.01 | 56 | 1019.7 |
| 20260503174726 | 55 | 176 | 0.0 | 0.0 | 0.00 | 0.01 | 0.01 | 56 | 1019.8 |
| 20260503174224 | 54 | 161 | 0.0 | 0.0 | 0.00 | 0.01 | 0.01 | 56 | 1020.0 |
| 20260503173719 | 54 | 175 | 0.0 | 0.0 | 0.00 | 0.01 | 0.01 | 57 | 1020.0 |
| 20260503173215 | 54 | 221 | 0.0 | 0.0 | 0.00 | 0.01 | 0.01 | 57 | 1020.0 |
| 20260503172712 | 54 | 175 | 0.0 | 0.0 | 0.00 | 0.01 | 0.01 | 59 | 1020.0 |
| 20260503172209 | 54 | 114 | 3.0 | 3.0 | 0.00 | 0.01 | 0.01 | 58 | 1020.0 |
| 20260503171705 | 54 | 206 | 1.0 | 2.0 | 0.00 | 0.01 | 0.01 | 62 | 1020.1 |
| 20260503171203 | 55 | 180 | 0.0 | 0.0 | 0.00 | 0.01 | 0.01 | 61 | 1020.3 |
| 20260503170700 | 54 | 96 | 2.0 | 3.0 | 0.00 | 0.01 | 0.01 | 59 | 1020.4 |
| 20260503170157 | 53 | 168 | 0.0 | 0.0 | 0.00 | 0.01 | 0.01 | 56 | 1020.5 |
| 20260503160118 | 50 | 163 | 0.0 | 2.0 | 0.00 | 0.01 | 0.01 | 66 | 1020.9 |
| 20260503150548 | 47 | 178 | 2.0 | 2.0 | 0.00 | 0.01 | 0.01 | 87 | 1021.3 |
| 20260503130933 | 39 | 168 | 0.0 | 0.0 | 0.00 | 0.01 | 0.01 | 99 | 1020.7 |
| 20260503130431 | 38 | 155 | 0.0 | 0.0 | 0.00 | 0.01 | 0.01 | 99 | 1020.9 |
| 20260503110824 | 37 | 163 | 0.0 | 0.0 | 0.00 | 0.01 | 0.01 | 99 | 1019.4 |
| 20260503110320 | 37 | 162 | 0.0 | 0.0 | 0.00 | 0.01 | 0.01 | 99 | 1019.4 |
| 20260503100247 | 38 | 166 | 0.0 | 0.0 | 0.00 | 0.01 | 0.01 | 99 | 1019.0 |
| 20260503090206 | 39 | 169 | 0.0 | 0.0 | 0.00 | 0.01 | 0.01 | 99 | 1019.0 |
| 20260503081636 | 39 | 165 | 0.0 | 0.0 | 0.00 | 0.01 | 0.01 | 99 | 1019.1 |
| 20260503081133 | 39 | 168 | 0.0 | 0.0 | 0.00 | 0.01 | 0.01 | 99 | 1019.0 |
| 20260503080629 | 38 | 169 | 0.0 | 0.0 | 0.00 | 0.01 | 0.01 | 99 | 1018.9 |
| 20260503080126 | 38 | 165 | 0.0 | 0.0 | 0.00 | 0.01 | 0.01 | 99 | 1018.8 |
| 20260503072603 | 39 | 165 | 0.0 | 0.0 | 0.00 | 0.01 | 0.01 | 99 | 1018.5 |
| 20260503072100 | 39 | 167 | 0.0 | 0.0 | 0.00 | 0.01 | 0.01 | 99 | 1018.6 |
| 20260503071557 | 38 | 166 | 0.0 | 0.0 | 0.00 | 0.01 | 0.01 | 99 | 1018.5 |
| 20260503071054 | 38 | 165 | 0.0 | 0.0 | 0.07 | 0.01 | 0.01 | 99 | 1018.5 |
| 20260503070550 | 38 | 165 | 0.0 | 0.0 | 0.07 | 0.01 | 0.01 | 99 | 1018.5 |
| 20260503055009 | 39 | 165 | 0.0 | 0.0 | 0.00 | 0.00 | 0.00 | 99 | 1018.4 |
| 20260503054505 | 39 | 165 | 0.0 | 0.0 | 0.00 | 0.00 | 0.00 | 99 | 1018.5 |
| 20260503054003 | 39 | 168 | 0.0 | 0.0 | 0.00 | 0.00 | 0.00 | 99 | 1018.5 |
| 20260503053501 | 40 | 168 | 0.0 | 0.0 | 0.00 | 0.00 | 0.00 | 99 | 1018.5 |
| 20260503052957 | 40 | 168 | 0.0 | 0.0 | 0.00 | 0.00 | 0.00 | 99 | 1018.2 |
| 20260503052454 | 40 | 163 | 0.0 | 0.0 | 0.00 | 0.00 | 0.00 | 99 | 1018.1 |
| 20260503051950 | 40 | 166 | 0.0 | 0.0 | 0.00 | 0.00 | 0.00 | 99 | 1018.1 |
| 20260503051446 | 40 | 166 | 0.0 | 0.0 | 0.00 | 0.00 | 0.00 | 99 | 1018.3 |
| 20260503050944 | 40 | 166 | 0.0 | 0.0 | 0.00 | 0.00 | 0.00 | 99 | 1018.0 |
| 20260503050439 | 40 | 166 | 0.0 | 0.0 | 0.00 | 0.00 | 0.00 | 99 | 1018.1 |
| 20260503045937 | 40 | 168 | 0.0 | 0.0 | 0.00 | 0.04 | 0.04 | 99 | 1018.3 |
| 20260503045435 | 40 | 167 | 0.0 | 0.0 | 0.00 | 0.04 | 0.04 | 99 | 1018.0 |
| 20260503044931 | 40 | 168 | 0.0 | 0.0 | 0.00 | 0.04 | 0.04 | 99 | 1018.2 |
| 20260503044428 | 40 | 168 | 0.0 | 0.0 | 0.00 | 0.04 | 0.04 | 99 | 1017.9 |
| 20260503043926 | 40 | 168 | 0.0 | 0.0 | 0.00 | 0.04 | 0.04 | 99 | 1017.9 |
| 20260503043422 | 40 | 169 | 0.0 | 0.0 | 0.00 | 0.04 | 0.04 | 99 | 1017.9 |
| 20260503042919 | 40 | 173 | 0.0 | 0.0 | 0.00 | 0.04 | 0.04 | 99 | 1017.9 |
| 20260503042415 | 40 | 173 | 0.0 | 0.0 | 0.00 | 0.04 | 0.04 | 99 | 1017.8 |
| 20260503041912 | 40 | 173 | 0.0 | 0.0 | 0.00 | 0.04 | 0.04 | 99 | 1018.1 |
| 20260503041409 | 40 | 173 | 0.0 | 0.0 | 0.00 | 0.04 | 0.04 | 99 | 1018.0 |
| 20260503040906 | 40 | 172 | 0.0 | 0.0 | 0.00 | 0.04 | 0.04 | 99 | 1017.9 |
| 20260503040404 | 40 | 168 | 0.0 | 0.0 | 0.00 | 0.04 | 0.04 | 99 | 1017.8 |
| 20260503035900 | 40 | 173 | 0.0 | 0.0 | 0.00 | 0.04 | 0.04 | 99 | 1017.8 |
| 20260503035357 | 41 | 168 | 0.0 | 0.0 | 0.00 | 0.04 | 0.04 | 99 | 1017.8 |
| 20260503034854 | 41 | 166 | 0.0 | 0.0 | 0.00 | 0.04 | 0.04 | 99 | 1017.7 |
| 20260503034352 | 41 | 166 | 0.0 | 0.0 | 0.00 | 0.04 | 0.04 | 99 | 1017.7 |
| 20260503033849 | 41 | 162 | 0.0 | 0.0 | 0.00 | 0.04 | 0.04 | 99 | 1017.7 |
| 20260503033347 | 41 | 166 | 0.0 | 0.0 | 0.00 | 0.04 | 0.04 | 99 | 1017.8 |
| 20260503032844 | 41 | 164 | 0.0 | 0.0 | 0.00 | 0.04 | 0.04 | 99 | 1017.7 |
| 20260503032343 | 42 | 167 | 0.0 | 0.0 | 0.00 | 0.04 | 0.04 | 99 | 1017.7 |
| 20260503031840 | 41 | 168 | 0.0 | 0.0 | 0.00 | 0.04 | 0.04 | 99 | 1017.9 |
| 20260503031338 | 41 | 167 | 0.0 | 0.0 | 0.00 | 0.04 | 0.04 | 99 | 1017.7 |
| 20260503030834 | 41 | 161 | 0.0 | 0.0 | 0.00 | 0.04 | 0.04 | 99 | 1017.5 |
| 20260503030330 | 41 | 162 | 0.0 | 0.0 | 0.00 | 0.04 | 0.04 | 99 | 1017.7 |
| 20260503025827 | 41 | 164 | 0.0 | 0.0 | 0.00 | 0.04 | 0.04 | 99 | 1017.8 |
| 20260503025325 | 41 | 162 | 0.0 | 0.0 | 0.00 | 0.04 | 0.04 | 99 | 1017.7 |
| 20260503024821 | 41 | 165 | 0.0 | 0.0 | 0.00 | 0.04 | 0.04 | 99 | 1017.6 |
| 20260503024318 | 42 | 169 | 0.0 | 0.0 | 0.00 | 0.04 | 0.04 | 99 | 1017.4 |
| 20260503023815 | 41 | 162 | 0.0 | 0.0 | 0.00 | 0.04 | 0.04 | 99 | 1017.8 |
| 20260503023312 | 42 | 167 | 0.0 | 0.0 | 0.00 | 0.04 | 0.04 | 99 | 1017.4 |
| 20260503022808 | 42 | 164 | 0.0 | 0.0 | 0.00 | 0.04 | 0.04 | 99 | 1017.4 |
| 20260503022305 | 42 | 168 | 0.0 | 0.0 | 0.00 | 0.04 | 0.04 | 99 | 1017.4 |
| 20260503021800 | 42 | 166 | 0.0 | 0.0 | 0.00 | 0.04 | 0.04 | 99 | 1017.4 |
| 20260503021256 | 42 | 170 | 0.0 | 0.0 | 0.00 | 0.04 | 0.04 | 99 | 1017.4 |
| 20260503020754 | 42 | 156 | 0.0 | 0.0 | 0.00 | 0.04 | 0.04 | 99 | 1017.2 |
| 20260503020251 | 42 | 168 | 0.0 | 0.0 | 0.00 | 0.04 | 0.04 | 99 | 1017.3 |
| 20260503015747 | 42 | 176 | 0.0 | 0.0 | 0.00 | 0.04 | 0.04 | 99 | 1017.4 |
| 20260503015244 | 42 | 192 | 0.0 | 0.0 | 0.00 | 0.04 | 0.04 | 99 | 1017.2 |
| 20260503014740 | 42 | 168 | 0.0 | 0.0 | 0.00 | 0.04 | 0.04 | 99 | 1017.2 |
| 20260503014238 | 42 | 171 | 0.0 | 0.0 | 0.00 | 0.04 | 0.04 | 99 | 1017.3 |
| 20260503013735 | 42 | 176 | 0.0 | 0.0 | 0.00 | 0.04 | 0.04 | 99 | 1017.4 |
| 20260503013233 | 42 | 170 | 0.0 | 0.0 | 0.00 | 0.04 | 0.04 | 99 | 1017.2 |
| 20260503012730 | 42 | 170 | 0.0 | 0.0 | 0.00 | 0.04 | 0.04 | 99 | 1017.2 |
| 20260503012227 | 43 | 164 | 0.0 | 0.0 | 0.00 | 0.04 | 0.04 | 99 | 1017.2 |
| 20260503011723 | 43 | 172 | 0.0 | 0.0 | 0.00 | 0.04 | 0.04 | 99 | 1017.2 |
| 20260503011221 | 43 | 171 | 0.0 | 0.0 | 0.00 | 0.04 | 0.04 | 99 | 1017.1 |
| 20260503010717 | 43 | 170 | 0.0 | 0.0 | 0.00 | 0.04 | 0.04 | 99 | 1017.1 |
| 20260503010214 | 44 | 173 | 0.0 | 0.0 | 0.00 | 0.04 | 0.04 | 99 | 1017.1 |
| 20260503005711 | 43 | 178 | 0.0 | 0.0 | 0.00 | 0.04 | 0.04 | 99 | 1016.9 |
| 20260503005208 | 43 | 196 | 0.0 | 2.0 | 0.00 | 0.04 | 0.04 | 99 | 1017.2 |
| 20260503004704 | 44 | 173 | 1.0 | 2.0 | 0.00 | 0.04 | 0.04 | 99 | 1017.0 |
| 20260503004203 | 44 | 229 | 0.0 | 0.0 | 0.00 | 0.04 | 0.04 | 99 | 1016.9 |
| 20260503003700 | 44 | 125 | 0.0 | 2.0 | 0.00 | 0.04 | 0.04 | 99 | 1016.9 |
| 20260503003157 | 44 | 180 | 0.0 | 0.0 | 0.00 | 0.04 | 0.04 | 99 | 1017.0 |
| 20260503002653 | 44 | 187 | 0.0 | 0.0 | 0.00 | 0.04 | 0.04 | 98 | 1016.8 |